Date,TemperatureHighF,TemperatureAvgF,TemperatureLowF,DewpointHighF,DewpointAvgF,DewpointLowF,HumidityHigh,HumidityAvg,HumidityLow,PressureMaxIn,PressureMinIn,WindSpeedMaxMPH,WindSpeedAvgMPH,GustSpeedMaxMPH,PrecipitationSumIn
2013-1-1,36,28,15,28,18,9,79,66,58,29.96,29.74,14,4,23,0.00
2013-1-2,28,18,6,17,10,-2,84,72,59,30.22,29.93,11,2,20,0.00
2013-1-3,21,9,-2,11,1,-6,83,69,56,30.24,29.96,4,1,9,0.00
2013-1-4,40,32,21,24,21,13,80,64,49,29.96,29.82,8,2,15,0.00
2013-1-5,38,34,24,27,22,19,79,65,48,30.23,29.90,11,4,19,0.00
2013-1-6,42,34,26,31,26,19,87,73,59,30.16,29.88,8,2,11,0.00
2013-1-7,38,30,18,32,23,15,87,76,62,30.36,29.97,12,2,20,0.00
2013-1-8,42,28,14,28,22,12,91,79,56,30.35,30.25,12,1,16,0.00
2013-1-9,46,33,19,33,26,17,92,77,45,30.34,29.96,16,2,30,0.00
2013-1-10,45,38,28,30,26,24,83,62,52,30.53,30.13,14,5,33,0.00
2013-1-11,39,32,26,37,28,22,93,85,60,30.51,30.06,10,2,13,0.13
2013-1-12,46,41,38,43,39,36,96,93,88,30.13,30.05,11,2,14,0.00
2013-1-13,50,45,40,46,43,38,96,93,87,30.10,29.90,14,4,21,0.01
2013-1-14,48,43,35,46,35,25,94,75,57,30.30,29.82,16,4,22,0.02
2013-1-15,38,34,30,26,24,22,78,67,53,30.33,30.21,7,1,10,0.00
2013-1-16,32,31,29,31,28,23,94,90,70,30.21,29.80,4,1,8,0.00
2013-1-17,38,32,24,31,23,10,93,71,53,30.14,29.82,14,3,22,0.16
2013-1-18,25,20,13,11,6,-3,74,56,37,30.39,30.07,13,2,18,0.00
2013-1-19,44,36,26,28,20,11,61,53,47,30.23,29.74,20,7,25,0.03
2013-1-20,45,37,22,34,23,11,80,57,34,30.00,29.52,16,7,25,0.00
2013-1-21,27,23,18,19,13,9,85,67,47,30.05,29.78,7,1,13,0.00
2013-1-22,21,16,10,16,4,-5,85,61,36,30.10,29.76,11,4,22,0.00
2013-1-23,11,7,2,2,-3,-7,75,61,47,30.20,30.10,19,3,22,0.00
2013-1-24,16,7,-2,3,-3,-6,83,64,40,30.36,30.15,16,4,27,0.00
2013-1-25,19,12,5,12,2,-3,87,63,43,30.40,30.06,11,2,16,0.00
2013-1-26,22,14,8,10,6,4,89,71,47,30.32,30.05,11,2,19,0.00
2013-1-27,29,18,5,7,4,0,87,58,28,30.49,30.32,10,1,12,0.00
2013-1-28,33,25,16,30,19,6,93,78,48,30.46,29.93,7,1,12,0.00
2013-1-29,41,32,26,38,30,24,94,90,85,30.12,29.95,16,2,20,0.37
2013-1-30,59,52,41,55,49,38,94,90,86,29.98,29.28,19,8,29,0.22
2013-1-31,56,41,26,54,33,17,95,74,46,29.62,28.84,24,5,50,0.70
2013-2-1,28,25,19,20,12,8,79,59,48,30.14,29.62,18,4,33,0.00
2013-2-2,28,21,12,17,10,5,80,62,44,30.20,29.99,14,3,20,0.00
2013-2-3,31,23,16,18,15,12,90,72,48,30.02,29.75,4,1,7,0.00
2013-2-4,26,22,16,18,13,9,82,69,51,29.93,29.75,14,3,23,0.00
2013-2-5,30,24,18,22,13,9,80,65,48,29.99,29.86,7,1,9,0.00
2013-2-6,34,28,20,25,17,3,88,65,33,30.35,29.86,13,4,27,0.00
2013-2-7,26,20,14,9,7,4,77,56,42,30.52,30.34,10,2,12,0.00
2013-2-8,29,25,20,25,19,9,93,79,52,30.35,29.79,10,2,18,0.00
2013-2-9,27,19,9,22,11,1,93,72,43,30.35,29.82,16,5,24,0.00
2013-2-10,32,15,0,11,4,-4,86,65,34,30.50,30.25,4,0,8,0.00
2013-2-11,43,36,17,38,30,10,92,80,52,30.24,29.61,16,6,26,0.05
2013-2-12,39,37,34,33,28,24,86,70,62,29.91,29.66,21,4,24,0.00
2013-2-13,42,35,32,27,24,21,78,63,45,29.87,29.70,6,1,10,0.00
2013-2-14,42,33,24,26,23,20,84,67,51,29.92,29.69,10,1,16,0.00
2013-2-15,51,41,32,30,27,23,90,59,41,29.99,29.84,11,4,17,0.00
2013-2-16,33,30,25,29,19,9,92,64,48,29.98,29.82,13,3,18,0.00
2013-2-17,24,20,14,10,5,0,65,52,36,29.92,29.65,21,8,36,0.00
2013-2-18,29,19,10,9,3,-2,63,50,33,30.20,29.93,20,5,28,0.00
2013-2-19,44,32,19,35,23,9,92,71,47,30.14,29.59,17,4,39,0.13
2013-2-20,33,29,26,26,16,9,77,58,41,29.88,29.64,23,7,33,0.00
2013-2-21,26,22,19,16,12,8,73,65,58,30.36,29.86,17,6,28,0.00
2013-2-22,38,30,21,26,20,15,80,68,53,30.41,30.21,7,2,14,0.00
2013-2-23,39,36,34,35,30,25,93,80,68,30.21,29.87,7,2,16,0.00
2013-2-24,39,35,32,35,31,25,95,86,64,29.94,29.74,12,2,18,0.07
2013-2-25,43,35,26,31,28,24,92,74,55,30.21,29.95,6,1,10,0.00
2013-2-26,46,37,26,31,27,23,91,69,48,30.28,30.00,10,2,12,0.00
2013-2-27,44,37,32,38,34,24,94,88,54,30.00,29.50,10,1,13,0.39
2013-2-28,44,39,35,38,35,33,95,87,73,29.57,29.52,4,1,9,0.13
2013-3-1,41,36,32,34,32,27,94,85,68,29.74,29.57,10,2,18,0.04
2013-3-2,36,31,26,27,24,21,83,76,64,29.75,29.68,9,3,14,0.03
2013-3-3,32,27,23,25,20,16,86,76,67,29.75,29.67,12,4,22,0.00
2013-3-4,31,29,26,24,22,20,83,74,67,29.89,29.73,19,6,28,0.00
2013-3-5,42,34,29,28,25,22,87,70,56,30.05,29.89,9,3,17,0.00
2013-3-6,45,36,27,33,28,24,89,73,56,30.09,30.00,14,2,16,0.00
2013-3-7,38,34,30,31,27,23,95,76,57,30.13,30.06,9,4,19,0.00
2013-3-8,41,33,29,32,28,25,95,85,63,30.26,30.07,13,5,19,0.10
2013-3-9,53,36,26,30,25,22,86,66,35,30.33,30.25,11,2,14,0.02
2013-3-10,55,40,22,33,26,20,89,60,31,30.33,30.16,12,4,19,0.00
2013-3-11,51,45,38,42,35,30,80,69,55,30.21,29.95,14,6,27,0.00
2013-3-12,54,50,40,51,45,34,93,85,77,29.95,29.63,20,6,26,0.96
2013-3-13,47,39,34,33,28,22,82,65,38,29.85,29.74,19,4,21,0.00
2013-3-14,34,28,25,24,14,8,68,57,48,29.89,29.80,15,6,29,0.00
2013-3-15,38,30,21,30,19,10,89,63,47,29.92,29.63,20,3,22,0.00
2013-3-16,36,31,24,26,18,14,84,59,41,29.89,29.73,6,2,13,0.00
2013-3-17,36,28,20,17,11,7,69,49,31,30.30,29.89,14,4,21,0.00
2013-3-18,40,28,14,26,11,5,91,54,25,30.42,30.06,6,2,19,0.00
2013-3-19,35,32,28,33,29,25,94,88,75,30.04,29.68,6,1,15,0.08
2013-3-20,38,30,20,25,21,17,90,72,49,29.79,29.73,14,2,21,0.03
2013-3-21,38,28,16,20,15,10,88,60,37,29.79,29.62,8,2,14,0.13
2013-3-22,36,29,21,26,20,13,85,70,57,29.80,29.66,16,2,25,0.01
2013-3-23,40,35,31,26,23,20,81,63,46,29.86,29.75,15,6,31,0.01
2013-3-24,46,37,32,25,24,22,70,58,41,29.87,29.72,9,3,15,0.00
2013-3-25,45,37,30,29,26,24,80,66,47,29.74,29.48,13,3,16,0.00
2013-3-26,49,40,32,30,26,21,83,60,34,29.81,29.57,11,2,16,0.00
2013-3-27,52,41,29,34,28,21,80,60,40,29.91,29.80,12,3,23,0.00
2013-3-28,49,42,37,36,33,30,82,69,55,30.07,29.90,13,3,16,0.00
2013-3-29,50,44,37,34,31,29,76,62,45,30.09,30.02,10,3,18,0.00
2013-3-30,56,44,30,33,26,21,86,53,27,30.11,30.01,12,2,20,0.00
2013-3-31,56,43,28,41,28,22,91,60,31,30.08,29.68,26,4,26,0.10
2013-4-1,54,41,32,45,32,17,94,72,40,29.85,29.53,17,5,29,0.05
2013-4-2,36,32,27,24,19,13,87,61,39,29.99,29.84,18,6,34,0.00
2013-4-3,40,34,27,24,17,13,81,53,34,30.25,29.98,17,6,28,0.00
2013-4-4,55,42,29,24,21,18,72,47,26,30.32,29.94,15,4,22,0.00
2013-4-5,54,45,38,29,24,19,69,45,28,29.95,29.74,21,6,32,0.00
2013-4-6,49,38,30,28,12,6,70,36,19,30.26,29.95,13,4,19,0.00
2013-4-7,59,49,34,41,28,12,71,46,26,30.21,29.82,30,9,33,0.00
2013-4-8,64,52,43,41,36,33,83,57,33,30.10,29.89,10,2,14,0.00
2013-4-9,61,57,53,48,44,38,74,62,49,30.00,29.78,15,4,24,0.01
2013-4-10,60,51,45,51,48,44,94,87,70,29.95,29.79,10,2,15,0.60
2013-4-11,45,40,34,43,32,25,94,74,50,30.11,29.85,12,5,18,0.04
2013-4-12,42,37,33,37,33,29,95,88,77,30.09,29.74,10,2,18,0.49
2013-4-13,52,44,38,41,38,36,95,80,60,29.91,29.78,17,1,17,0.01
2013-4-14,48,43,33,38,31,25,84,64,43,30.21,29.89,15,3,19,0.00
2013-4-15,61,47,29,36,31,25,87,57,36,30.33,30.18,16,4,21,0.00
2013-4-16,61,55,48,54,44,30,85,66,48,30.27,29.98,28,8,37,0.17
2013-4-17,67,54,43,44,36,31,75,52,26,30.28,30.11,11,3,18,0.00
2013-4-18,65,52,36,47,36,32,85,57,32,30.30,29.98,25,7,30,0.00
2013-4-19,73,63,45,61,56,42,91,78,66,29.97,29.49,22,9,33,0.81
2013-4-20,54,46,36,42,33,24,94,65,37,30.30,29.70,17,4,24,0.23
2013-4-21,54,41,31,24,20,18,63,45,25,30.61,30.30,11,3,17,0.00
2013-4-22,61,46,31,30,24,17,78,46,21,30.67,30.46,17,2,17,0.00
2013-4-23,55,44,30,39,33,25,82,65,50,30.49,30.10,5,1,12,0.00
2013-4-24,74,55,34,51,42,32,93,66,39,30.10,29.64,15,4,27,0.00
2013-4-25,62,49,41,53,32,25,83,54,27,30.22,29.70,15,5,24,0.15
2013-4-26,59,48,35,37,32,28,83,57,32,30.41,30.22,10,2,19,0.00
2013-4-27,67,51,32,35,31,24,87,52,21,30.42,30.23,6,1,11,0.00
2013-4-28,76,58,38,41,36,33,82,48,22,30.27,30.06,11,3,18,0.00
2013-4-29,60,57,52,49,42,31,90,59,36,30.18,30.12,15,4,18,0.00
2013-4-30,74,61,49,46,41,29,90,52,26,30.26,30.17,10,2,16,0.02
2013-5-1,78,64,46,41,32,28,55,32,16,30.40,30.26,9,2,16,0.00
2013-5-2,83,67,48,45,41,35,78,43,20,30.41,30.20,10,2,19,0.00
2013-5-3,74,63,51,43,35,28,56,37,20,30.44,30.26,9,3,12,0.00
2013-5-4,79,64,46,46,41,28,87,49,22,30.31,30.11,8,2,14,0.00
2013-5-5,77,61,45,43,37,29,78,45,20,30.25,30.08,7,2,13,0.00
2013-5-6,77,62,45,51,41,27,85,51,16,30.21,30.03,12,3,16,0.00
2013-5-7,81,68,50,55,51,47,89,59,32,30.12,29.98,9,2,12,0.00
2013-5-8,75,65,56,62,57,53,89,76,52,30.09,29.93,9,1,14,0.16
2013-5-9,74,62,52,57,54,50,94,77,50,29.96,29.81,7,2,12,0.00
2013-5-10,80,67,52,57,53,50,95,66,39,29.94,29.78,6,2,10,0.00
2013-5-11,70,64,58,64,58,52,92,83,62,29.78,29.61,11,4,18,0.25
2013-5-12,61,55,45,53,41,26,85,62,27,29.84,29.62,11,3,21,0.01
2013-5-13,51,46,39,36,30,26,79,55,41,30.06,29.84,12,3,22,0.00
2013-5-14,59,48,38,35,32,27,81,55,29,30.09,29.97,11,2,14,0.00
2013-5-15,67,52,33,53,42,30,89,71,44,30.01,29.56,12,3,24,0.07
2013-5-16,80,66,46,52,41,37,87,45,22,29.81,29.64,16,4,23,0.00
2013-5-17,73,60,47,44,41,37,80,52,28,30.17,29.82,10,2,14,0.00
2013-5-18,74,60,44,49,44,37,90,59,27,30.27,30.16,12,2,15,0.00
2013-5-19,60,57,49,56,53,47,92,85,75,30.26,30.11,10,3,14,0.06
2013-5-20,84,69,58,65,60,54,91,74,51,30.11,29.87,6,2,12,0.00
2013-5-21,90,72,62,69,65,60,94,79,46,29.90,29.73,7,2,28,0.97
2013-5-22,79,70,63,72,66,61,95,87,72,29.84,29.73,11,3,20,1.25
2013-5-23,74,71,66,69,65,62,93,83,75,29.78,29.68,10,4,17,0.31
2013-5-24,66,53,44,64,51,43,95,92,86,29.96,29.61,12,3,21,0.84
2013-5-25,46,45,44,44,43,42,95,93,91,29.95,29.87,18,5,24,1.13
2013-5-26,56,48,42,44,42,40,92,81,62,30.10,29.96,7,2,19,0.09
2013-5-27,72,57,38,43,38,32,95,56,28,30.17,30.07,12,2,19,0.00
2013-5-28,72,57,41,55,46,38,92,68,37,30.18,30.08,12,2,16,0.00
2013-5-29,80,66,58,70,62,56,94,87,70,30.08,29.87,9,3,17,0.59
2013-5-30,90,75,61,71,65,60,96,74,47,30.06,29.99,8,2,13,0.01
2013-5-31,94,80,64,70,66,62,94,66,40,30.07,29.87,10,2,14,0.00
2013-6-1,91,81,69,73,67,62,78,63,46,29.92,29.77,9,3,17,0.11
2013-6-2,87,77,68,73,69,65,93,76,58,29.78,29.64,16,3,22,0.92
2013-6-3,71,66,56,66,55,36,96,70,39,29.90,29.75,13,3,18,0.01
2013-6-4,72,61,50,47,43,40,74,54,36,30.09,29.91,13,4,19,0.00
2013-6-5,77,64,48,50,46,41,86,55,33,30.17,30.04,7,1,9,0.00
2013-6-6,75,63,53,58,52,49,92,69,41,30.10,29.99,10,2,17,0.43
2013-6-7,59,58,56,57,55,54,95,92,88,29.98,29.74,5,1,8,0.72
2013-6-8,71,62,54,60,56,53,96,83,67,30.01,29.68,14,2,15,0.37
2013-6-9,79,67,53,59,55,52,95,69,43,30.13,30.01,9,1,14,0.00
2013-6-10,66,61,54,63,58,52,95,91,83,30.14,29.83,3,0,5,0.60
2013-6-11,71,64,59,68,61,58,96,92,80,29.82,29.52,7,1,16,1.11